Time;durP1;ratioP1;P1;durP2;ratioP2;P2;SDS_P1;SDS_P2;PMS_P1;PMS_P2;Temp;Humidity;BMP_temperature;BMP_pressure;BME280_temperature;BME280_humidity;BME280_pressure;Samples;Min_cycle;Max_cycle;Signal;HPM_P1;HPM_P2
2023/10/29 00:00:43;;;;;;;32.80;27.77;;;13.70;67.70;;;;;;5109675;28;20279;-83
2023/10/29 00:03:10;;;;;;;45.97;32.07;;;13.70;67.60;;;;;;5089968;28;20222;-83
2023/10/29 00:05:36;;;;;;;41.90;31.90;;;13.70;67.60;;;;;;5091796;28;20195;-83
2023/10/29 00:08:02;;;;;;;47.80;32.40;;;13.70;67.70;;;;;;5093199;28;20219;-83
2023/10/29 00:10:28;;;;;;;40.80;30.20;;;13.70;67.60;;;;;;5107151;28;20187;-83
2023/10/29 00:12:53;;;;;;;44.07;32.83;;;13.70;67.60;;;;;;5102473;28;20203;-83
2023/10/29 00:15:25;;;;;;;41.00;30.10;;;13.70;67.60;;;;;;5091912;28;20187;-83
2023/10/29 00:17:51;;;;;;;45.67;32.43;;;13.80;67.80;;;;;;5074131;28;20192;-83
2023/10/29 00:20:16;;;;;;;39.10;30.67;;;13.80;67.70;;;;;;5092544;28;20304;-83
2023/10/29 00:22:42;;;;;;;41.93;30.17;;;13.70;67.60;;;;;;5110120;28;20192;-83
2023/10/29 00:25:26;;;;;;;39.23;30.43;;;13.80;67.70;;;;;;5091526;28;20597;-83
2023/10/29 00:27:51;;;;;;;46.23;33.27;;;13.70;67.70;;;;;;5086279;28;20645;-83
2023/10/29 00:30:17;;;;;;;40.63;30.57;;;13.70;67.60;;;;;;5091861;28;20218;-83
2023/10/29 00:32:43;;;;;;;40.30;30.40;;;13.70;67.60;;;;;;5076711;28;20207;-83
2023/10/29 00:35:09;;;;;;;38.97;28.87;;;13.70;67.60;;;;;;5075551;28;20606;-83
2023/10/29 00:37:34;;;;;;;36.53;26.27;;;13.70;67.60;;;;;;5076650;28;20184;-83
2023/10/29 00:40:00;;;;;;;43.10;31.80;;;13.70;67.70;;;;;;5081523;28;20180;-83
2023/10/29 00:42:26;;;;;;;32.50;25.93;;;13.70;67.60;;;;;;5080981;28;20284;-83
2023/10/29 00:44:51;;;;;;;36.43;28.23;;;13.70;67.60;;;;;;5093384;28;20715;-83
2023/10/29 00:47:17;;;;;;;41.30;28.50;;;13.70;67.70;;;;;;5096455;28;20271;-83
2023/10/29 00:49:43;;;;;;;42.60;29.30;;;13.70;67.60;;;;;;5095950;28;20187;-83
2023/10/29 00:52:08;;;;;;;36.60;28.17;;;13.70;67.70;;;;;;5090469;28;20248;-83
2023/10/29 00:54:34;;;;;;;40.43;28.73;;;13.70;67.70;;;;;;5094956;28;20193;-83
2023/10/29 00:57:00;;;;;;;36.97;28.23;;;13.70;67.70;;;;;;5077560;28;20241;-83
2023/10/29 00:59:30;;;;;;;41.30;28.93;;;13.70;67.80;;;;;;5110701;28;20183;-83
2023/10/29 01:01:55;;;;;;;43.77;30.13;;;13.60;67.80;;;;;;5095368;28;20184;-83
2023/10/29 01:04:21;;;;;;;40.07;28.60;;;13.80;68.00;;;;;;5095098;28;20274;-83
2023/10/29 01:10:10;;;;;;;52.40;30.10;;;13.70;67.80;;;;;;5102289;28;20676;-83
2023/10/29 01:12:35;;;;;;;38.03;28.07;;;13.80;67.90;;;;;;5089167;28;20204;-83
2023/10/29 01:15:01;;;;;;;36.37;26.50;;;13.80;67.80;;;;;;5085958;28;20182;-83
2023/10/29 01:17:26;;;;;;;30.53;25.70;;;13.80;67.70;;;;;;5105892;28;20676;-83
2023/10/29 01:19:52;;;;;;;38.63;26.20;;;13.70;67.70;;;;;;5084605;28;20187;-83
2023/10/29 01:22:18;;;;;;;34.03;26.83;;;13.70;67.70;;;;;;5085072;28;20332;-83
2023/10/29 01:24:44;;;;;;;36.30;28.30;;;13.70;67.80;;;;;;5082944;28;20180;-83
2023/10/29 01:27:10;;;;;;;35.33;27.87;;;13.70;67.70;;;;;;5104741;28;20172;-83
2023/10/29 01:29:36;;;;;;;36.93;28.03;;;13.70;67.80;;;;;;5088056;28;20184;-83
2023/10/29 01:32:01;;;;;;;41.13;28.50;;;13.70;67.90;;;;;;5092014;28;20306;-83
2023/10/29 01:34:27;;;;;;;29.27;24.67;;;13.70;67.90;;;;;;5090687;28;20191;-83
2023/10/29 01:36:53;;;;;;;41.07;29.93;;;13.80;68.00;;;;;;5094053;28;20549;-83
2023/10/29 01:39:18;;;;;;;37.90;26.73;;;13.70;67.80;;;;;;5093552;28;20220;-83
2023/10/29 01:41:44;;;;;;;39.63;29.17;;;13.70;67.80;;;;;;5095670;28;20229;-83
2023/10/29 01:44:10;;;;;;;35.03;27.63;;;13.70;67.80;;;;;;5091694;28;20187;-83
2023/10/29 01:46:35;;;;;;;36.50;28.57;;;13.70;67.90;;;;;;5094006;28;20274;-83
2023/10/29 01:49:02;;;;;;;38.60;29.20;;;13.70;68.10;;;;;;5095011;28;20601;-84
2023/10/29 01:51:27;;;;;;;42.20;28.43;;;13.70;68.10;;;;;;5111084;28;20241;-83
2023/10/29 01:53:53;;;;;;;38.17;29.10;;;13.70;68.10;;;;;;5095539;28;20172;-83
2023/10/29 01:56:18;;;;;;;36.17;27.90;;;13.80;68.10;;;;;;5094247;28;20676;-83
2023/10/29 01:58:44;;;;;;;46.13;30.73;;;13.80;68.00;;;;;;5094395;28;20180;-83
2023/10/29 02:01:11;;;;;;;36.60;28.33;;;13.80;68.00;;;;;;5094547;28;20211;-83
2023/10/29 02:03:37;;;;;;;44.80;30.40;;;13.80;67.90;;;;;;5093551;28;20235;-83
2023/10/29 02:06:04;;;;;;;39.10;28.07;;;13.80;68.10;;;;;;5090861;28;20187;-83
2023/10/29 02:08:29;;;;;;;39.63;29.80;;;13.80;68.10;;;;;;5109095;28;20215;-83
2023/10/29 02:10:55;;;;;;;45.63;30.83;;;13.80;68.00;;;;;;5089587;28;20206;-83
2023/10/29 02:13:21;;;;;;;41.70;30.20;;;13.70;67.90;;;;;;5093970;28;20218;-83
2023/10/29 02:15:46;;;;;;;44.77;31.50;;;13.70;68.10;;;;;;5091175;28;20188;-83
2023/10/29 02:18:12;;;;;;;44.90;32.20;;;13.80;68.20;;;;;;5109015;28;20633;-83
2023/10/29 02:20:38;;;;;;;43.67;31.23;;;13.80;68.20;;;;;;5094348;28;20176;-83
2023/10/29 02:23:03;;;;;;;51.60;32.13;;;13.70;68.10;;;;;;5109271;28;20191;-83
2023/10/29 02:25:29;;;;;;;76.37;38.53;;;13.80;68.30;;;;;;5093636;28;20210;-83
2023/10/29 02:27:55;;;;;;;42.83;29.63;;;13.80;68.30;;;;;;5092347;28;20187;-83
2023/10/29 02:30:20;;;;;;;42.67;30.63;;;13.80;68.20;;;;;;5093413;28;20272;-83
2023/10/29 02:32:46;;;;;;;45.60;31.67;;;13.80;68.30;;;;;;5094378;28;20210;-83
2023/10/29 02:35:12;;;;;;;49.10;33.67;;;13.80;68.30;;;;;;5093724;28;20224;-83
2023/10/29 02:37:37;;;;;;;47.90;33.40;;;13.80;68.20;;;;;;5094180;28;20183;-83
2023/10/29 02:40:04;;;;;;;46.47;30.93;;;13.80;68.00;;;;;;5108499;28;20531;-83
2023/10/29 02:42:29;;;;;;;59.43;33.83;;;13.80;68.20;;;;;;5110941;28;20298;-83
2023/10/29 02:44:55;;;;;;;46.50;30.90;;;13.80;68.40;;;;;;5080370;28;20263;-83
2023/10/29 02:47:20;;;;;;;47.43;31.37;;;13.80;68.30;;;;;;5090679;28;20560;-83
2023/10/29 02:49:46;;;;;;;58.23;34.97;;;13.80;68.30;;;;;;5093705;28;20179;-84
2023/10/29 02:52:12;;;;;;;53.63;33.60;;;13.80;68.30;;;;;;5093036;28;20204;-83
2023/10/29 02:54:37;;;;;;;52.33;33.50;;;13.80;68.40;;;;;;5092341;28;20188;-83
2023/10/29 02:57:03;;;;;;;56.03;33.20;;;13.70;68.20;;;;;;5094859;28;20179;-83
2023/10/29 02:59:29;;;;;;;49.80;33.77;;;13.80;68.40;;;;;;5093636;28;20187;-83
2023/10/29 03:01:55;;;;;;;59.53;34.57;;;13.80;68.40;;;;;;5093233;28;20668;-83
2023/10/29 03:04:21;;;;;;;57.00;34.73;;;13.70;68.30;;;;;;5094026;28;20270;-83
2023/10/29 03:06:46;;;;;;;60.57;35.23;;;13.70;68.50;;;;;;5076025;28;20216;-83
2023/10/29 03:09:13;;;;;;;54.57;32.37;;;13.70;68.60;;;;;;5089841;28;20203;-83
2023/10/29 03:11:38;;;;;;;53.27;32.40;;;13.70;68.60;;;;;;5108645;28;20184;-84
2023/10/29 03:14:04;;;;;;;53.37;33.80;;;13.70;68.60;;;;;;5093056;28;20522;-83
2023/10/29 03:16:30;;;;;;;67.30;35.77;;;13.70;68.60;;;;;;5106493;28;20703;-84
2023/10/29 03:18:55;;;;;;;75.70;38.13;;;13.70;68.50;;;;;;5092326;28;20661;-83
2023/10/29 03:21:21;;;;;;;68.30;35.53;;;13.70;68.60;;;;;;5094546;28;20175;-83
2023/10/29 03:23:46;;;;;;;69.33;37.20;;;13.60;68.50;;;;;;5094394;28;20270;-83
2023/10/29 03:26:12;;;;;;;46.87;31.70;;;13.60;68.70;;;;;;5093280;28;20689;-83
2023/10/29 03:28:39;;;;;;;65.87;34.40;;;13.60;68.80;;;;;;5093348;28;20228;-83
2023/10/29 03:31:15;;;;;;;68.37;36.27;;;13.60;69.10;;;;;;5092229;28;20203;-83
2023/10/29 03:33:41;;;;;;;67.83;35.63;;;13.60;69.00;;;;;;5092441;28;20237;-84
2023/10/29 03:36:08;;;;;;;65.90;36.50;;;13.60;68.80;;;;;;5097503;28;20207;-83
2023/10/29 03:38:34;;;;;;;82.00;38.70;;;13.60;68.90;;;;;;5097309;28;20188;-83
2023/10/29 03:40:59;;;;;;;73.50;38.07;;;13.60;69.20;;;;;;5110824;28;20176;-82
2023/10/29 03:43:25;;;;;;;70.93;36.10;;;13.60;69.20;;;;;;5093353;28;20215;-83
2023/10/29 03:45:51;;;;;;;61.70;34.83;;;13.70;69.30;;;;;;5110337;28;20226;-83
2023/10/29 03:48:16;;;;;;;63.37;35.00;;;13.70;69.10;;;;;;5074685;28;20179;-83
2023/10/29 03:50:42;;;;;;;66.63;35.37;;;13.70;69.10;;;;;;5103057;28;20266;-83
2023/10/29 03:53:08;;;;;;;66.67;37.97;;;13.70;69.00;;;;;;5092643;28;20207;-83
2023/10/29 03:55:37;;;;;;;73.67;38.10;;;13.60;69.10;;;;;;5108198;28;20180;-83
2023/10/29 03:58:03;;;;;;;77.93;37.90;;;13.60;69.10;;;;;;5110003;28;20187;-84
2023/10/29 04:01:02;;;;;;;70.47;36.87;;;13.60;69.30;;;;;;5111618;28;20172;-83
2023/10/29 04:03:29;;;;;;;80.13;38.70;;;13.60;69.30;;;;;;5089281;28;20183;-83
2023/10/29 04:05:55;;;;;;;71.23;38.07;;;13.60;69.40;;;;;;5092580;28;20183;-83
2023/10/29 04:08:21;;;;;;;75.60;36.93;;;13.50;69.40;;;;;;5109494;28;20264;-84
2023/10/29 04:10:46;;;;;;;76.67;39.27;;;13.60;69.70;;;;;;5091554;28;20219;-83
2023/10/29 04:13:12;;;;;;;80.93;37.93;;;13.60;69.50;;;;;;5092714;28;20883;-83
2023/10/29 04:15:38;;;;;;;76.47;39.33;;;13.60;69.50;;;;;;5095106;28;20175;-83
2023/10/29 04:18:04;;;;;;;75.23;38.50;;;13.70;69.50;;;;;;5096662;28;20179;-83
2023/10/29 04:20:30;;;;;;;58.97;35.43;;;13.70;69.40;;;;;;5096221;28;20610;-83
2023/10/29 04:22:55;;;;;;;56.80;33.33;;;13.80;69.50;;;;;;5096434;28;20187;-84
2023/10/29 04:25:21;;;;;;;62.67;34.97;;;13.70;69.50;;;;;;5095464;28;20274;-83
2023/10/29 04:27:46;;;;;;;89.97;39.17;;;13.80;69.60;;;;;;5096287;28;20176;-83
2023/10/29 04:30:13;;;;;;;89.03;39.90;;;13.80;69.60;;;;;;5097070;28;20171;-84
2023/10/29 04:32:38;;;;;;;94.37;40.13;;;13.80;69.40;;;;;;5095636;28;20211;-83
2023/10/29 04:35:05;;;;;;;80.73;39.23;;;13.80;69.30;;;;;;5111925;28;20190;-83
2023/10/29 04:37:30;;;;;;;65.93;35.30;;;13.80;69.50;;;;;;5096065;28;20180;-83
2023/10/29 04:39:56;;;;;;;84.13;40.20;;;13.80;69.60;;;;;;5113445;28;20236;-83
2023/10/29 04:42:22;;;;;;;64.70;34.20;;;13.80;69.50;;;;;;5095008;28;20584;-83
2023/10/29 04:44:47;;;;;;;100.50;40.10;;;13.90;69.50;;;;;;5084873;28;20219;-83
2023/10/29 04:47:13;;;;;;;84.03;39.90;;;13.90;69.50;;;;;;5091731;28;20187;-83
2023/10/29 04:49:39;;;;;;;81.77;35.80;;;13.90;69.50;;;;;;5095979;28;20586;-83
2023/10/29 04:52:05;;;;;;;84.60;37.63;;;13.90;69.50;;;;;;5094438;28;20211;-83
2023/10/29 04:54:30;;;;;;;93.13;39.57;;;13.80;69.30;;;;;;5096792;28;20725;-83
2023/10/29 04:56:56;;;;;;;114.60;42.67;;;13.80;69.50;;;;;;5111372;28;20188;-83
2023/10/29 04:59:22;;;;;;;68.30;39.70;;;13.90;69.70;;;;;;5095471;28;20680;-83
2023/10/29 05:01:47;;;;;;;94.10;41.07;;;13.90;69.60;;;;;;5110383;28;20267;-83
2023/10/29 05:04:13;;;;;;;96.07;40.17;;;13.90;69.60;;;;;;5111483;28;20192;-83
2023/10/29 05:06:38;;;;;;;88.40;40.07;;;13.80;69.30;;;;;;5114859;28;20168;-83
2023/10/29 05:09:04;;;;;;;96.30;40.07;;;13.80;69.50;;;;;;5095405;28;20184;-83
2023/10/29 05:11:31;;;;;;;94.07;39.97;;;13.80;69.50;;;;;;5110386;28;20179;-83
2023/10/29 05:13:56;;;;;;;76.67;36.93;;;13.80;69.70;;;;;;5111892;28;20172;-83
2023/10/29 05:16:22;;;;;;;77.23;36.40;;;13.90;69.70;;;;;;5092108;28;20525;-83
2023/10/29 05:18:48;;;;;;;68.93;36.87;;;13.80;69.70;;;;;;5095338;28;20187;-83
2023/10/29 05:21:13;;;;;;;73.17;35.03;;;13.80;69.70;;;;;;5112700;28;20180;-83
2023/10/29 05:23:39;;;;;;;105.67;41.57;;;13.80;69.70;;;;;;5111671;28;20187;-84
2023/10/29 05:26:05;;;;;;;82.73;38.87;;;13.90;69.90;;;;;;5094903;28;20239;-83
2023/10/29 05:28:30;;;;;;;114.13;42.07;;;13.90;69.80;;;;;;5110760;28;20180;-84
2023/10/29 05:30:56;;;;;;;54.90;33.90;;;13.80;69.80;;;;;;5094392;28;20184;-83
2023/10/29 05:33:22;;;;;;;93.03;38.17;;;13.90;70.00;;;;;;5095783;28;20208;-83
2023/10/29 05:35:47;;;;;;;75.50;36.80;;;13.90;69.90;;;;;;5110532;28;20176;-83
2023/10/29 05:38:13;;;;;;;58.73;34.90;;;13.90;69.80;;;;;;5113419;28;20188;-83
2023/10/29 05:40:39;;;;;;;71.47;38.33;;;13.90;69.90;;;;;;5110479;28;20187;-82
2023/10/29 05:43:04;;;;;;;67.30;37.07;;;13.90;69.90;;;;;;5094120;28;20223;-83
2023/10/29 05:45:30;;;;;;;97.60;39.33;;;13.90;69.70;;;;;;5087495;28;20172;-82
2023/10/29 05:47:56;;;;;;;68.50;35.17;;;14.00;70.00;;;;;;5096186;28;20178;-88
2023/10/29 05:50:23;;;;;;;64.67;34.97;;;14.00;70.00;;;;;;5095856;28;20193;-88
2023/10/29 05:52:49;;;;;;;86.00;38.87;;;14.00;70.00;;;;;;5095744;28;20812;-87
2023/10/29 05:55:14;;;;;;;57.43;34.17;;;14.00;69.80;;;;;;5089201;28;20183;-86
2023/10/29 05:57:40;;;;;;;80.17;37.17;;;14.00;69.80;;;;;;5091431;28;20541;-85
2023/10/29 06:00:09;;;;;;;82.27;37.53;;;14.00;69.80;;;;;;5094925;28;20184;-86
2023/10/29 06:02:35;;;;;;;64.80;35.73;;;14.00;69.90;;;;;;5095122;28;20184;-85
2023/10/29 06:05:01;;;;;;;89.93;40.27;;;14.00;69.90;;;;;;5105106;28;20597;-86
2023/10/29 06:07:26;;;;;;;112.20;41.27;;;14.00;70.00;;;;;;5092845;28;20187;-89
2023/10/29 06:09:52;;;;;;;56.53;32.77;;;14.00;70.10;;;;;;5114412;28;20172;-86
2023/10/29 06:12:18;;;;;;;73.87;37.23;;;14.00;70.00;;;;;;5094889;28;20264;-86
2023/10/29 06:14:45;;;;;;;49.47;31.73;;;14.10;70.20;;;;;;5094675;28;20171;-85
2023/10/29 06:17:11;;;;;;;81.07;39.73;;;14.10;70.10;;;;;;5110021;28;20194;-79
2023/10/29 06:19:36;;;;;;;69.03;36.97;;;14.20;70.20;;;;;;5092838;28;20176;-77
2023/10/29 06:22:05;;;;;;;70.50;36.17;;;14.20;70.10;;;;;;5094774;28;20184;-80
2023/10/29 06:24:31;;;;;;;49.70;32.40;;;14.20;70.10;;;;;;5095146;28;20262;-83
2023/10/29 06:26:57;;;;;;;44.47;29.37;;;14.20;70.00;;;;;;5094509;28;20262;-83
2023/10/29 06:29:22;;;;;;;49.27;29.90;;;14.20;70.00;;;;;;5094177;28;20645;-90
2023/10/29 06:31:48;;;;;;;40.60;28.57;;;14.20;70.10;;;;;;5094583;28;20188;-85
2023/10/29 06:34:13;;;;;;;51.20;31.30;;;14.30;70.20;;;;;;5093782;28;20189;-84
2023/10/29 06:36:39;;;;;;;46.43;29.67;;;14.30;70.20;;;;;;5095074;28;20188;-84
2023/10/29 06:39:05;;;;;;;39.53;28.33;;;14.30;70.20;;;;;;5094717;28;20648;-83
2023/10/29 06:41:30;;;;;;;48.17;31.00;;;14.40;70.30;;;;;;5109595;28;20183;-85
2023/10/29 06:43:56;;;;;;;43.97;29.37;;;14.40;70.20;;;;;;5109305;28;20644;-82
2023/10/29 06:46:22;;;;;;;39.77;28.33;;;14.40;70.30;;;;;;5092862;28;20892;-84
2023/10/29 06:48:47;;;;;;;37.07;26.23;;;14.40;70.40;;;;;;5095023;28;20550;-84
2023/10/29 06:51:18;;;;;;;47.03;28.67;;;14.40;70.40;;;;;;5094247;28;20232;-84
2023/10/29 06:53:45;;;;;;;40.33;27.40;;;14.50;70.50;;;;;;5094275;28;20218;-84
2023/10/29 06:56:11;;;;;;;38.40;25.17;;;14.50;70.60;;;;;;5093347;28;20311;-84
2023/10/29 06:58:38;;;;;;;34.77;25.57;;;14.50;70.50;;;;;;5091321;28;20225;-84
2023/10/29 07:01:11;;;;;;;38.80;25.83;;;14.50;70.40;;;;;;5094669;28;20217;-85
2023/10/29 07:03:42;;;;;;;38.07;25.77;;;14.50;70.40;;;;;;5112110;28;20171;-84
2023/10/29 07:06:14;;;;;;;33.10;24.17;;;14.40;70.60;;;;;;5094103;28;20186;-84
2023/10/29 07:08:39;;;;;;;32.17;23.23;;;14.40;70.80;;;;;;5093736;28;20652;-83
2023/10/29 07:11:05;;;;;;;30.67;22.40;;;14.40;70.70;;;;;;5093647;28;20180;-85
2023/10/29 07:13:32;;;;;;;30.90;21.80;;;14.50;71.10;;;;;;5091298;28;20613;-84
2023/10/29 07:16:00;;;;;;;29.40;19.27;;;14.50;71.00;;;;;;5112322;28;21203;-84
2023/10/29 07:18:26;;;;;;;30.63;21.13;;;14.50;70.90;;;;;;5093425;28;20187;-84
2023/10/29 07:20:52;;;;;;;24.30;19.77;;;14.50;71.20;;;;;;5089310;28;20210;-83
2023/10/29 07:23:19;;;;;;;26.27;20.60;;;14.50;71.30;;;;;;5111112;28;20183;-85
2023/10/29 07:25:45;;;;;;;24.60;18.53;;;14.60;71.30;;;;;;5091226;28;20183;-81
2023/10/29 07:28:10;;;;;;;22.27;18.13;;;14.60;71.30;;;;;;5093713;28;20648;-81
2023/10/29 07:30:36;;;;;;;22.27;17.07;;;14.60;71.20;;;;;;5109559;28;20526;-81
2023/10/29 07:33:02;;;;;;;21.37;16.20;;;14.70;71.30;;;;;;5093469;28;20280;-81
2023/10/29 07:35:28;;;;;;;19.00;15.37;;;14.70;71.20;;;;;;5108581;28;20542;-81
2023/10/29 07:37:53;;;;;;;22.43;15.87;;;14.80;71.10;;;;;;5101121;28;20182;-82
2023/10/29 07:40:19;;;;;;;21.00;15.40;;;14.80;71.20;;;;;;5092662;28;20178;-82
2023/10/29 07:42:44;;;;;;;15.13;13.40;;;14.80;71.00;;;;;;5110470;28;20297;-83
2023/10/29 07:45:10;;;;;;;16.37;13.33;;;14.80;71.00;;;;;;5110096;28;20179;-80
2023/10/29 07:47:36;;;;;;;17.50;12.80;;;14.90;71.10;;;;;;5109504;28;20194;-80
2023/10/29 07:50:01;;;;;;;16.27;12.87;;;14.90;70.90;;;;;;5114779;28;20184;-79
2023/10/29 07:52:27;;;;;;;16.60;11.60;;;14.90;71.10;;;;;;5117922;28;20214;-80
2023/10/29 07:54:53;;;;;;;15.47;12.40;;;15.00;71.40;;;;;;5115948;28;20178;-80
2023/10/29 07:57:18;;;;;;;15.80;11.87;;;14.90;71.20;;;;;;5117659;28;20190;-79
2023/10/29 07:59:44;;;;;;;16.37;12.07;;;15.00;71.20;;;;;;5113931;28;20179;-79
2023/10/29 08:02:09;;;;;;;15.80;11.30;;;15.00;71.00;;;;;;5099642;28;20193;-79
2023/10/29 08:04:35;;;;;;;17.13;11.73;;;15.00;71.10;;;;;;5095992;28;20195;-79
2023/10/29 08:07:01;;;;;;;14.10;10.53;;;15.10;71.00;;;;;;5094165;28;20287;-79
2023/10/29 08:09:27;;;;;;;15.90;11.20;;;15.10;71.00;;;;;;5089831;28;20537;-79
2023/10/29 08:11:52;;;;;;;21.40;11.20;;;15.10;71.00;;;;;;5099389;28;20196;-79
2023/10/29 08:14:18;;;;;;;15.70;10.37;;;15.10;71.00;;;;;;5097575;28;20226;-80
2023/10/29 08:16:43;;;;;;;18.70;11.60;;;15.20;71.20;;;;;;5096354;28;20187;-80
2023/10/29 08:19:09;;;;;;;15.40;10.20;;;15.20;71.10;;;;;;5115851;28;20171;-80
2023/10/29 08:21:35;;;;;;;14.33;10.63;;;15.20;71.20;;;;;;5080167;28;20176;-80
2023/10/29 08:24:00;;;;;;;13.37;10.57;;;15.30;71.30;;;;;;5103802;28;20187;-80
2023/10/29 08:26:28;;;;;;;19.70;11.47;;;15.30;71.10;;;;;;5107665;28;20629;-80
2023/10/29 08:28:54;;;;;;;15.03;9.60;;;15.30;71.10;;;;;;5097532;28;20176;-80
2023/10/29 08:31:23;;;;;;;13.40;9.53;;;15.40;71.20;;;;;;5099705;28;20176;-79
2023/10/29 08:33:49;;;;;;;11.27;9.43;;;15.40;70.90;;;;;;5100573;28;20208;-80
2023/10/29 08:36:18;;;;;;;15.87;9.90;;;15.40;71.20;;;;;;5091480;28;20629;-80
2023/10/29 08:38:44;;;;;;;13.50;8.47;;;15.50;71.20;;;;;;5086819;28;20179;-79
2023/10/29 08:41:16;;;;;;;13.60;8.60;;;15.50;71.20;;;;;;5113603;28;20267;-79
2023/10/29 08:43:42;;;;;;;11.40;8.10;;;15.50;71.00;;;;;;5113278;28;20219;-81
2023/10/29 08:46:08;;;;;;;14.13;8.27;;;15.50;70.80;;;;;;5099483;28;20551;-79
2023/10/29 08:48:34;;;;;;;11.10;8.40;;;15.60;70.90;;;;;;5109080;28;20179;-80
2023/10/29 08:50:59;;;;;;;13.23;8.40;;;15.70;71.10;;;;;;5096242;28;20183;-80
2023/10/29 08:53:25;;;;;;;12.33;9.03;;;15.70;71.00;;;;;;5107579;28;20214;-81
2023/10/29 08:55:51;;;;;;;13.70;8.13;;;15.80;70.90;;;;;;5112158;28;20179;-80
2023/10/29 08:58:18;;;;;;;10.57;8.50;;;15.80;70.90;;;;;;5097092;28;20172;-80
2023/10/29 09:00:45;;;;;;;11.43;7.90;;;15.90;70.70;;;;;;5108677;28;20267;-80
2023/10/29 09:03:13;;;;;;;12.30;8.07;;;15.90;70.70;;;;;;5103879;28;20652;-80
2023/10/29 09:05:39;;;;;;;11.23;8.23;;;16.00;70.80;;;;;;5095774;28;20187;-80
2023/10/29 09:08:05;;;;;;;11.93;7.53;;;16.10;70.90;;;;;;5111160;28;20193;-80
2023/10/29 09:10:31;;;;;;;12.40;8.20;;;16.10;70.70;;;;;;5095702;28;20248;-80
2023/10/29 09:12:57;;;;;;;12.13;8.20;;;16.20;70.60;;;;;;5101133;28;20299;-80
2023/10/29 09:15:23;;;;;;;13.13;8.60;;;16.20;70.60;;;;;;5094629;28;20189;-80
2023/10/29 09:17:48;;;;;;;9.47;7.40;;;16.20;70.40;;;;;;5075234;28;20188;-81
2023/10/29 09:20:14;;;;;;;9.93;7.23;;;16.30;70.50;;;;;;5093389;28;20586;-80
2023/10/29 09:22:39;;;;;;;9.20;7.37;;;16.30;70.20;;;;;;5105185;28;20198;-81
2023/10/29 09:25:05;;;;;;;12.40;7.37;;;16.40;70.20;;;;;;5080809;28;20176;-80
2023/10/29 09:27:31;;;;;;;10.00;7.50;;;16.40;70.00;;;;;;5092790;28;20271;-80
2023/10/29 09:29:57;;;;;;;11.10;7.60;;;16.40;69.90;;;;;;5084701;28;20303;-80
2023/10/29 09:32:23;;;;;;;9.63;7.80;;;16.50;70.00;;;;;;5081139;28;20275;-79
2023/10/29 09:34:50;;;;;;;32.10;25.40;;;16.60;70.00;;;;;;5082712;28;20176;-80
2023/10/29 09:37:16;;;;;;;36.33;28.23;;;16.60;70.00;;;;;;5088286;28;20180;-80
2023/10/29 09:39:43;;;;;;;43.10;34.37;;;16.80;70.60;;;;;;5092936;28;20542;-80
2023/10/29 09:42:11;;;;;;;23.87;17.97;;;16.70;69.90;;;;;;5089017;28;20256;-80
2023/10/29 09:44:40;;;;;;;21.00;16.77;;;16.70;69.90;;;;;;5087419;28;20645;-80
2023/10/29 09:47:13;;;;;;;13.97;8.47;;;16.80;69.80;;;;;;5101776;28;20248;-82
2023/10/29 09:49:39;;;;;;;9.77;8.07;;;16.80;69.70;;;;;;5103360;28;20271;-81
2023/10/29 09:52:06;;;;;;;12.80;7.33;;;16.80;69.60;;;;;;5083252;28;20212;-81
2023/10/29 09:54:31;;;;;;;10.37;7.33;;;16.80;69.40;;;;;;5103363;28;20644;-80
2023/10/29 09:56:57;;;;;;;12.03;7.57;;;16.90;69.60;;;;;;5105809;28;20183;-81
2023/10/29 09:59:23;;;;;;;11.37;7.13;;;16.90;69.20;;;;;;5089109;28;20187;-80
2023/10/29 10:01:49;;;;;;;9.87;6.90;;;16.90;69.40;;;;;;5089078;28;20176;-81
2023/10/29 10:04:15;;;;;;;11.00;7.47;;;16.90;69.50;;;;;;5097400;28;20180;-81
2023/10/29 10:06:42;;;;;;;10.27;6.90;;;16.90;69.70;;;;;;5082877;28;20196;-81
2023/10/29 10:09:08;;;;;;;11.00;6.30;;;16.90;69.80;;;;;;5084884;28;20180;-82
2023/10/29 10:11:34;;;;;;;9.33;6.50;;;17.00;69.90;;;;;;5085389;28;20302;-82
2023/10/29 10:13:59;;;;;;;8.70;5.50;;;17.00;69.80;;;;;;5109919;28;20716;-79
2023/10/29 10:16:25;;;;;;;11.10;5.50;;;17.00;69.70;;;;;;5103692;28;20263;-79
2023/10/29 10:18:58;;;;;;;9.70;5.03;;;17.10;69.30;;;;;;5108787;28;20188;-80
2023/10/29 10:21:51;;;;;;;7.87;4.70;;;17.10;69.00;;;;;;5091379;28;20196;-79
2023/10/29 10:24:16;;;;;;;10.13;5.20;;;17.10;68.70;;;;;;5106474;28;20222;-79
2023/10/29 10:26:42;;;;;;;6.73;4.40;;;17.10;68.50;;;;;;5085523;28;20634;-79
2023/10/29 10:29:09;;;;;;;8.47;4.00;;;17.20;68.30;;;;;;5100476;28;20225;-79
2023/10/29 10:31:38;;;;;;;8.07;4.53;;;17.20;68.20;;;;;;5072399;28;20594;-79
2023/10/29 10:34:11;;;;;;;5.77;3.77;;;17.20;67.90;;;;;;5105349;28;20215;-79
2023/10/29 10:36:37;;;;;;;6.13;3.97;;;17.30;67.40;;;;;;5105762;28;20637;-80
2023/10/29 10:39:03;;;;;;;9.77;4.83;;;17.30;67.10;;;;;;5088471;28;20222;-82
2023/10/29 10:41:46;;;;;;;5.00;4.03;;;17.30;67.20;;;;;;5086067;28;20541;-79
2023/10/29 10:44:13;;;;;;;7.63;4.27;;;17.40;67.20;;;;;;5066192;28;20200;-79
2023/10/29 10:46:52;;;;;;;8.17;4.00;;;17.40;67.30;;;;;;5061091;28;20182;-79
2023/10/29 10:49:19;;;;;;;6.53;3.77;;;17.50;66.80;;;;;;5070109;28;20686;-80
2023/10/29 10:51:47;;;;;;;4.73;3.70;;;17.50;66.30;;;;;;5064118;28;20189;-80
2023/10/29 10:54:17;;;;;;;5.43;3.50;;;17.60;66.30;;;;;;5065775;28;20243;-78
2023/10/29 10:56:43;;;;;;;6.10;4.00;;;17.60;66.20;;;;;;5058071;28;20528;-79
2023/10/29 10:59:13;;;;;;;6.03;4.10;;;17.60;65.90;;;;;;5068150;28;20196;-80
2023/10/29 11:01:39;;;;;;;6.33;3.47;;;17.70;65.80;;;;;;5070589;28;20695;-79
2023/10/29 11:04:08;;;;;;;6.47;3.67;;;17.70;65.30;;;;;;5059152;28;20208;-79
2023/10/29 11:06:37;;;;;;;4.70;3.73;;;17.80;64.90;;;;;;5062632;28;20184;-80
2023/10/29 11:09:05;;;;;;;5.13;3.53;;;17.80;65.20;;;;;;5070235;28;20188;-79
2023/10/29 11:11:38;;;;;;;8.47;4.00;;;17.90;65.30;;;;;;5065634;28;20188;-79
2023/10/29 11:14:33;;;;;;;5.43;3.50;;;17.90;65.20;;;;;;5053339;28;20258;-79
2023/10/29 11:16:59;;;;;;;4.87;3.27;;;18.00;65.30;;;;;;5059261;28;20247;-79
2023/10/29 11:19:47;;;;;;;6.93;3.27;;;18.10;65.30;;;;;;5067896;28;20177;-79
2023/10/29 11:22:19;;;;;;;6.77;3.00;;;18.10;64.90;;;;;;5069614;28;20196;-79
2023/10/29 11:25:14;;;;;;;5.07;3.47;;;18.20;65.20;;;;;;5057775;28;20204;-79
2023/10/29 11:27:45;;;;;;;5.30;3.23;;;18.30;64.50;;;;;;5058688;28;20263;-79
2023/10/29 11:30:18;;;;;;;3.80;2.97;;;18.40;63.80;;;;;;5069639;28;20209;-80
2023/10/29 11:33:06;;;;;;;6.30;3.30;;;18.50;62.90;;;;;;5062702;28;20231;-82
2023/10/29 11:35:33;;;;;;;7.17;3.30;;;18.60;62.50;;;;;;5075480;28;20197;-80
2023/10/29 11:38:02;;;;;;;6.43;3.23;;;18.70;62.30;;;;;;5063007;28;20216;-80
2023/10/29 11:40:32;;;;;;;6.70;3.37;;;18.90;61.50;;;;;;5069960;28;20646;-81
2023/10/29 11:43:18;;;;;;;10.70;3.13;;;19.00;61.00;;;;;;5086749;28;20234;-80
2023/10/29 11:45:53;;;;;;;4.50;3.13;;;19.10;60.80;;;;;;5080559;28;20196;-80
2023/10/29 11:48:19;;;;;;;4.53;3.27;;;19.10;60.90;;;;;;5083330;28;20199;-81
2023/10/29 11:51:05;;;;;;;6.13;3.67;;;19.00;60.90;;;;;;5082818;28;20180;-80
2023/10/29 11:53:32;;;;;;;5.40;3.20;;;19.00;60.60;;;;;;5089554;28;20207;-80
2023/10/29 11:56:04;;;;;;;6.07;3.20;;;18.90;60.40;;;;;;5089115;28;20172;-80
2023/10/29 11:58:31;;;;;;;6.73;3.73;;;18.90;60.90;;;;;;5092487;28;20176;-82
2023/10/29 12:00:59;;;;;;;4.50;2.90;;;18.90;60.90;;;;;;5106525;28;20195;-81
2023/10/29 12:03:25;;;;;;;4.10;3.03;;;18.90;60.90;;;;;;5091318;28;20196;-81
2023/10/29 12:05:52;;;;;;;4.93;3.13;;;18.90;60.80;;;;;;5093569;28;20286;-80
2023/10/29 12:08:19;;;;;;;4.53;3.17;;;18.90;60.90;;;;;;5085659;28;20195;-81
2023/10/29 12:10:52;;;;;;;5.27;2.90;;;18.90;60.70;;;;;;5106910;28;20535;-81
2023/10/29 12:13:19;;;;;;;9.27;3.17;;;18.90;61.00;;;;;;5101980;28;20222;-81
2023/10/29 12:15:54;;;;;;;5.40;3.03;;;18.90;61.20;;;;;;5083844;28;20180;-81
2023/10/29 12:18:21;;;;;;;3.57;2.80;;;18.90;60.50;;;;;;5080145;28;20180;-81
2023/10/29 12:21:01;;;;;;;5.33;2.90;;;18.90;61.40;;;;;;5102460;28;20180;-81
2023/10/29 12:23:28;;;;;;;6.87;3.17;;;18.90;60.80;;;;;;5076178;28;20656;-80
2023/10/29 12:25:55;;;;;;;6.63;3.37;;;18.80;60.50;;;;;;5082991;28;20176;-81
2023/10/29 12:28:26;;;;;;;5.00;2.97;;;18.80;60.20;;;;;;5086701;28;20180;-82
2023/10/29 12:30:52;;;;;;;6.57;3.10;;;18.80;60.30;;;;;;5085241;28;20195;-79
2023/10/29 12:33:25;;;;;;;7.07;3.20;;;18.80;60.20;;;;;;5090088;28;20212;-80